Time;durP1;ratioP1;P1;durP2;ratioP2;P2;SDS_P1;SDS_P2;PMS_P1;PMS_P2;Temp;Humidity;BMP_temperature;BMP_pressure;BME280_temperature;BME280_humidity;BME280_pressure;Samples;Min_cycle;Max_cycle;Signal;HPM_P1;HPM_P2
2021/07/23 00:00:03;;;;;;;15.50;9.70;;;;;;;21.68;61.63;100520.91;5063147;28;20064;-67
2021/07/23 00:02:49;;;;;;;12.98;9.55;;;;;;;21.71;62.15;100528.66;5113225;28;20047;-67
2021/07/23 00:05:34;;;;;;;10.68;8.73;;;;;;;21.75;60.20;100521.88;5078513;28;20055;-66
2021/07/23 00:08:20;;;;;;;12.68;9.00;;;;;;;21.78;60.50;100517.50;5112744;28;20726;-66
2021/07/23 00:11:06;;;;;;;11.05;8.55;;;;;;;21.79;59.94;100516.31;5072477;28;20399;-67
2021/07/23 00:13:52;;;;;;;10.45;8.73;;;;;;;21.81;59.57;100514.75;5081816;28;20069;-66
2021/07/23 00:16:37;;;;;;;10.75;8.80;;;;;;;21.81;59.66;100508.25;5094824;28;20043;-67
2021/07/23 00:19:23;;;;;;;11.65;8.30;;;;;;;21.76;60.09;100500.09;5091353;28;20399;-66
2021/07/23 00:22:09;;;;;;;13.35;9.02;;;;;;;21.73;60.63;100500.81;5072820;28;20047;-67
2021/07/23 00:24:55;;;;;;;11.55;8.80;;;;;;;21.74;60.15;100500.47;5090212;28;20032;-66
2021/07/23 00:27:41;;;;;;;10.98;9.07;;;;;;;21.76;59.95;100502.94;5067875;28;20040;-67
2021/07/23 00:30:27;;;;;;;12.88;8.70;;;;;;;21.73;60.26;100503.63;5095555;28;20036;-67
2021/07/23 00:33:13;;;;;;;12.52;8.63;;;;;;;21.70;60.35;100498.72;5083752;28;20039;-67
2021/07/23 00:35:59;;;;;;;12.90;9.10;;;;;;;21.67;60.86;100488.16;5069779;28;20130;-67
2021/07/23 00:38:46;;;;;;;11.50;9.00;;;;;;;21.67;60.45;100488.16;5089638;28;20032;-67
2021/07/23 00:41:32;;;;;;;13.20;8.43;;;;;;;21.60;60.61;100494.50;5084102;28;20115;-67
2021/07/23 00:44:17;;;;;;;12.38;8.48;;;;;;;21.56;60.91;100490.75;5079983;27;20106;-67
2021/07/23 00:47:03;;;;;;;11.93;9.13;;;;;;;21.54;60.48;100487.50;5083718;28;20551;-67
2021/07/23 00:49:51;;;;;;;10.77;8.90;;;;;;;21.51;60.87;100493.88;5083740;28;20031;-66
2021/07/23 00:52:37;;;;;;;11.32;8.52;;;;;;;21.49;60.53;100490.59;5082968;28;20040;-67
2021/07/23 00:55:23;;;;;;;12.90;9.10;;;;;;;21.45;60.73;100498.97;5064400;28;20036;-67
2021/07/23 00:58:09;;;;;;;11.13;8.80;;;;;;;21.41;60.66;100496.09;5073714;28;20065;-66
2021/07/23 01:00:57;;;;;;;11.15;8.48;;;;;;;21.46;60.15;100499.81;5081396;28;20028;-66
2021/07/23 01:03:43;;;;;;;11.73;8.73;;;;;;;21.40;60.51;100500.09;5077418;28;20111;-67
2021/07/23 01:06:29;;;;;;;11.50;8.55;;;;;;;21.37;60.82;100497.22;5100366;28;20061;-67
2021/07/23 01:09:16;;;;;;;11.88;8.30;;;;;;;21.33;60.16;100499.09;5077339;28;20032;-67
2021/07/23 01:12:02;;;;;;;11.00;8.80;;;;;;;21.27;60.66;100498.53;5081946;28;20043;-67
2021/07/23 01:14:48;;;;;;;11.10;8.57;;;;;;;21.24;60.88;100490.81;5069958;28;20070;-67
2021/07/23 01:17:33;;;;;;;11.90;8.25;;;;;;;21.21;60.59;100500.00;5063282;28;20453;-67
2021/07/23 01:20:24;;;;;;;12.48;8.88;;;;;;;21.21;60.73;100500.00;5084967;27;20672;-66
2021/07/23 01:23:10;;;;;;;13.38;8.70;;;;;;;21.16;60.41;100492.63;5069801;28;20042;-67
2021/07/23 01:25:57;;;;;;;12.40;9.00;;;;;;;21.12;61.13;100486.09;5083390;28;20031;-67
2021/07/23 01:28:46;;;;;;;11.77;8.52;;;;;;;21.07;61.01;100469.44;5080455;28;20019;-67
2021/07/23 01:31:32;;;;;;;11.20;8.30;;;;;;;21.05;61.20;100448.38;5094254;28;20043;-67
2021/07/23 01:34:18;;;;;;;12.10;8.75;;;;;;;21.00;61.49;100445.84;5095333;28;20036;-67
2021/07/23 01:37:04;;;;;;;10.45;8.05;;;;;;;20.95;61.50;100444.13;5069517;28;20054;-66
2021/07/23 01:39:50;;;;;;;11.07;8.40;;;;;;;20.91;61.37;100434.75;5082252;28;20499;-67
2021/07/23 01:42:36;;;;;;;10.80;8.55;;;;;;;20.87;61.78;100431.84;5060645;28;20024;-67
2021/07/23 01:45:22;;;;;;;11.50;8.60;;;;;;;20.83;61.55;100430.91;5079963;27;20063;-67
2021/07/23 01:48:08;;;;;;;10.82;8.35;;;;;;;20.78;61.97;100427.56;5077380;28;20043;-67
2021/07/23 01:50:54;;;;;;;10.80;8.50;;;;;;;20.73;62.27;100423.03;5096603;28;20177;-67
2021/07/23 01:53:39;;;;;;;11.45;8.35;;;;;;;20.70;62.41;100415.31;5080056;28;20031;-67
2021/07/23 01:56:25;;;;;;;10.40;8.23;;;;;;;20.67;62.07;100411.22;5101337;28;20027;-67
2021/07/23 01:59:11;;;;;;;14.10;8.82;;;;;;;20.63;62.73;100401.81;5088001;27;20042;-67
2021/07/23 02:01:57;;;;;;;11.48;8.93;;;;;;;20.56;62.53;100396.00;5098315;27;20039;-67
2021/07/23 02:04:42;;;;;;;13.10;9.98;;;;;;;20.41;65.13;100385.50;5098652;28;20114;-67
2021/07/23 02:07:28;;;;;;;13.43;9.95;;;;;;;20.28;66.56;100384.75;5102713;28;20118;-67
2021/07/23 02:10:14;;;;;;;14.32;8.90;;;;;;;20.26;64.37;100379.50;5102205;28;20119;-67
2021/07/23 02:13:00;;;;;;;14.75;10.20;;;;;;;20.25;64.85;100377.03;5115320;28;20058;-67
2021/07/23 02:15:46;;;;;;;13.50;9.68;;;;;;;20.23;64.79;100371.75;5101171;28;20027;-67
2021/07/23 02:18:32;;;;;;;13.38;9.27;;;;;;;20.24;64.78;100381.03;5131911;27;20036;-67
2021/07/23 02:21:18;;;;;;;12.57;9.43;;;;;;;20.20;64.55;100372.50;5088760;27;20599;-67
2021/07/23 02:24:04;;;;;;;14.63;9.55;;;;;;;20.22;64.33;100374.94;5090910;28;20031;-67
2021/07/23 02:26:50;;;;;;;13.05;9.40;;;;;;;20.17;64.36;100373.22;5116343;28;20043;-67
2021/07/23 02:29:35;;;;;;;13.80;9.60;;;;;;;20.15;64.16;100372.75;5085352;28;20038;-67
2021/07/23 02:32:21;;;;;;;13.55;9.80;;;;;;;20.13;64.90;100365.84;5113790;28;20041;-67
2021/07/23 02:35:08;;;;;;;13.00;9.15;;;;;;;20.09;64.54;100362.94;5106034;27;20039;-67
2021/07/23 02:37:54;;;;;;;12.02;8.57;;;;;;;20.09;64.47;100357.31;5101675;27;20047;-66
2021/07/23 02:40:39;;;;;;;13.13;9.18;;;;;;;20.08;64.46;100350.00;5114035;27;20035;-67
2021/07/23 02:43:25;;;;;;;14.77;9.52;;;;;;;20.05;64.51;100357.19;5087281;28;20036;-67
2021/07/23 02:46:11;;;;;;;11.77;8.90;;;;;;;20.02;64.94;100359.91;5094193;27;20035;-67
2021/07/23 02:48:57;;;;;;;14.60;9.07;;;;;;;20.03;65.11;100353.09;5106974;27;20034;-66
2021/07/23 02:51:42;;;;;;;11.82;8.50;;;;;;;20.02;64.65;100362.72;5104927;27;20447;-67
2021/07/23 02:54:28;;;;;;;11.63;8.88;;;;;;;20.04;64.56;100360.38;5134446;27;20031;-67
2021/07/23 02:57:14;;;;;;;13.75;9.45;;;;;;;20.04;64.49;100366.81;5135127;27;20431;-67
2021/07/23 03:00:00;;;;;;;12.85;9.20;;;;;;;20.00;64.49;100371.56;5094126;27;20485;-67
2021/07/23 03:02:46;;;;;;;14.20;9.02;;;;;;;20.00;64.44;100359.44;5092631;27;20062;-67
2021/07/23 03:05:31;;;;;;;12.82;8.77;;;;;;;19.97;64.82;100355.34;5105310;27;20038;-67
2021/07/23 03:08:17;;;;;;;11.95;8.90;;;;;;;19.93;64.42;100357.28;5102501;27;20034;-68
2021/07/23 03:11:03;;;;;;;14.27;9.05;;;;;;;19.91;64.76;100350.34;5104402;27;20122;-67
2021/07/23 03:13:49;;;;;;;12.85;9.65;;;;;;;19.90;64.28;100352.34;5090585;27;20377;-67
2021/07/23 03:16:35;;;;;;;15.02;9.43;;;;;;;19.90;64.44;100355.19;5120166;27;20489;-67
2021/07/23 03:19:20;;;;;;;11.18;8.98;;;;;;;19.84;64.62;100351.81;5108359;27;20643;-67
2021/07/23 03:22:06;;;;;;;12.15;9.20;;;;;;;19.82;64.79;100348.53;5122016;27;20042;-67
2021/07/23 03:24:52;;;;;;;12.60;8.75;;;;;;;19.82;64.34;100342.88;5118879;27;20043;-67
2021/07/23 03:27:38;;;;;;;14.52;9.23;;;;;;;19.77;64.72;100336.69;5097977;27;20031;-67
2021/07/23 03:30:23;;;;;;;13.75;9.60;;;;;;;19.76;64.88;100343.53;5117828;27;20110;-67
2021/07/23 03:33:09;;;;;;;12.80;9.63;;;;;;;19.74;65.08;100341.03;5104252;27;20117;-67
2021/07/23 03:35:55;;;;;;;11.35;8.75;;;;;;;19.73;64.78;100345.06;5106879;27;20100;-67
2021/07/23 03:38:41;;;;;;;12.00;8.95;;;;;;;19.71;64.92;100333.31;5103699;27;20040;-67
2021/07/23 03:41:26;;;;;;;12.68;9.00;;;;;;;19.65;64.69;100340.38;5106380;27;20035;-67
2021/07/23 03:44:12;;;;;;;12.48;9.48;;;;;;;19.64;64.77;100325.47;5097826;27;20039;-67
2021/07/23 03:46:58;;;;;;;12.00;8.77;;;;;;;19.66;65.05;100327.13;5102323;27;20043;-67
2021/07/23 03:49:44;;;;;;;15.88;9.60;;;;;;;19.64;64.73;100322.66;5115833;27;20039;-67
2021/07/23 03:52:30;;;;;;;13.32;9.55;;;;;;;19.58;64.78;100321.25;5114205;27;20043;-67
2021/07/23 03:55:16;;;;;;;13.18;9.32;;;;;;;19.59;65.29;100313.63;5100425;27;20028;-67
2021/07/23 03:58:03;;;;;;;12.57;9.30;;;;;;;19.54;65.36;100320.34;5120946;27;20057;-67
2021/07/23 04:00:49;;;;;;;13.63;9.15;;;;;;;19.56;65.33;100314.38;5118688;27;20043;-67
2021/07/23 04:03:35;;;;;;;12.75;9.25;;;;;;;19.53;64.92;100309.44;5117574;27;20043;-67
2021/07/23 04:06:20;;;;;;;13.80;9.15;;;;;;;19.47;65.38;100300.41;5106516;27;20034;-67
2021/07/23 04:09:06;;;;;;;13.02;9.73;;;;;;;19.45;65.48;100304.78;5094209;27;20031;-67
2021/07/23 04:11:53;;;;;;;13.32;9.48;;;;;;;19.44;65.42;100303.94;5101217;27;20039;-67
2021/07/23 04:14:38;;;;;;;12.63;9.25;;;;;;;19.42;65.45;100311.97;5110752;27;20031;-68
2021/07/23 04:17:24;;;;;;;13.65;9.48;;;;;;;19.41;65.41;100311.13;5099864;27;20039;-66
2021/07/23 04:20:11;;;;;;;14.10;9.43;;;;;;;19.38;65.53;100305.41;5104113;27;20043;-67
2021/07/23 04:22:56;;;;;;;12.23;9.85;;;;;;;19.33;65.57;100303.66;5087547;27;20130;-67
2021/07/23 04:25:42;;;;;;;13.80;10.00;;;;;;;19.32;66.01;100296.38;5085388;28;20027;-66
2021/07/23 04:28:28;;;;;;;14.02;9.65;;;;;;;19.27;66.04;100287.38;5108260;27;20031;-67
2021/07/23 04:31:14;;;;;;;16.70;10.63;;;;;;;19.23;67.23;100283.66;5117077;27;20095;-67
2021/07/23 04:33:59;;;;;;;14.38;10.20;;;;;;;19.26;66.21;100292.19;5125423;27;20032;-67
2021/07/23 04:36:45;;;;;;;14.10;10.32;;;;;;;19.20;66.76;100279.56;5100874;27;20093;-67
2021/07/23 04:39:31;;;;;;;16.08;10.95;;;;;;;19.15;66.78;100277.81;5103019;27;20031;-67
2021/07/23 04:42:17;;;;;;;14.82;10.55;;;;;;;19.16;67.61;100284.25;5102537;27;20035;-67
2021/07/23 04:45:04;;;;;;;12.57;10.30;;;;;;;19.13;67.29;100279.34;5104963;27;20039;-67
2021/07/23 04:47:50;;;;;;;13.13;9.65;;;;;;;19.15;67.36;100285.44;5092429;27;20034;-67
2021/07/23 04:50:36;;;;;;;16.13;10.45;;;;;;;19.19;66.95;100287.19;5089575;27;20047;-67
2021/07/23 04:53:22;;;;;;;15.00;10.35;;;;;;;19.21;67.38;100292.44;5099253;27;20035;-67
2021/07/23 04:56:07;;;;;;;16.77;10.73;;;;;;;19.21;68.11;100292.44;5118770;27;20110;-67
2021/07/23 04:58:53;;;;;;;16.63;10.55;;;;;;;19.27;67.97;100296.63;5132595;27;20448;-67
2021/07/23 05:01:39;;;;;;;15.35;9.95;;;;;;;19.35;68.64;100295.66;5117233;27;20486;-67
2021/07/23 05:04:25;;;;;;;14.63;10.15;;;;;;;19.41;68.52;100282.97;5096110;28;20085;-67
2021/07/23 05:07:10;;;;;;;13.95;9.32;;;;;;;19.49;68.27;100280.34;5094557;28;20035;-67
2021/07/23 05:09:56;;;;;;;13.88;9.77;;;;;;;19.55;68.26;100268.47;5102777;27;20043;-67
2021/07/23 05:12:42;;;;;;;17.25;11.13;;;;;;;19.60;69.16;100261.75;5091718;27;20051;-68
2021/07/23 05:15:28;;;;;;;17.25;11.68;;;;;;;19.62;68.63;100256.59;5102511;27;20039;-68
2021/07/23 05:18:14;;;;;;;17.33;11.75;;;;;;;19.62;69.84;100248.94;5117521;27;20115;-68
2021/07/23 05:21:00;;;;;;;17.15;12.35;;;;;;;19.61;70.38;100247.31;5132825;27;20057;-68
2021/07/23 05:23:46;;;;;;;17.48;11.98;;;;;;;19.67;70.65;100241.41;5097215;27;20481;-68
2021/07/23 05:26:36;;;;;;;18.45;12.18;;;;;;;19.75;70.32;100246.91;5097118;27;20517;-68
2021/07/23 05:29:21;;;;;;;17.30;12.50;;;;;;;19.82;70.68;100251.91;5102053;27;20023;-68
2021/07/23 05:32:07;;;;;;;16.45;12.20;;;;;;;19.93;69.87;100246.53;5100922;27;20092;-68
2021/07/23 05:34:53;;;;;;;19.27;12.40;;;;;;;19.98;70.12;100249.09;5105155;27;20562;-68
2021/07/23 05:37:39;;;;;;;18.10;12.65;;;;;;;20.13;70.36;100250.25;5097890;27;20042;-68
2021/07/23 05:40:25;;;;;;;18.25;12.38;;;;;;;20.19;69.94;100243.16;5088270;27;20054;-67
2021/07/23 05:43:11;;;;;;;16.73;11.07;;;;;;;20.29;68.62;100249.06;5102117;27;20042;-68
2021/07/23 05:45:57;;;;;;;15.85;10.98;;;;;;;20.41;68.25;100244.47;5095330;27;20467;-68
2021/07/23 05:48:43;;;;;;;13.50;10.88;;;;;;;20.50;67.99;100229.00;5101977;27;20057;-69
2021/07/23 05:51:28;;;;;;;17.92;11.63;;;;;;;20.49;68.57;100232.19;5094083;27;20035;-68
2021/07/23 05:54:14;;;;;;;16.20;12.00;;;;;;;20.54;69.04;100231.94;5085153;28;20088;-68
2021/07/23 05:57:00;;;;;;;15.57;11.68;;;;;;;20.63;68.59;100246.63;5102350;27;20045;-69
2021/07/23 05:59:46;;;;;;;15.48;10.95;;;;;;;20.73;67.18;100251.72;5115431;27;20054;-68
2021/07/23 06:02:32;;;;;;;17.33;10.93;;;;;;;20.80;67.24;100238.94;5100896;27;20046;-68
2021/07/23 06:05:18;;;;;;;13.73;10.75;;;;;;;20.86;67.37;100226.16;5115226;28;21094;-68
2021/07/23 06:08:04;;;;;;;15.75;10.65;;;;;;;20.92;67.50;100227.50;5100166;27;20061;-68
2021/07/23 06:10:49;;;;;;;18.27;10.07;;;;;;;20.98;66.56;100220.38;5096249;27;20117;-68
2021/07/23 06:13:36;;;;;;;15.13;10.30;;;;;;;21.06;67.18;100221.31;5101849;28;20031;-68
2021/07/23 06:16:22;;;;;;;13.52;10.55;;;;;;;21.10;67.19;100222.22;5102446;28;20035;-68
2021/07/23 06:19:08;;;;;;;17.05;11.82;;;;;;;21.10;67.66;100211.75;5102173;28;20068;-68
2021/07/23 06:21:54;;;;;;;17.17;10.90;;;;;;;21.19;66.78;100212.31;5100162;28;20039;-76
2021/07/23 06:24:40;;;;;;;16.52;11.25;;;;;;;21.28;66.71;100208.44;5088668;28;20035;-67
2021/07/23 06:27:26;;;;;;;14.95;10.25;;;;;;;21.35;66.43;100206.59;5130822;27;20063;-67
2021/07/23 06:30:12;;;;;;;18.23;10.65;;;;;;;21.47;66.72;100196.34;5109324;27;20027;-67
2021/07/23 06:32:58;;;;;;;16.42;11.07;;;;;;;21.53;66.67;100198.47;5116940;28;20039;-67
2021/07/23 06:35:43;;;;;;;16.65;11.15;;;;;;;21.59;66.29;100191.34;5107683;28;20033;-68
2021/07/23 06:38:29;;;;;;;15.88;10.48;;;;;;;21.67;65.85;100185.78;5108435;28;20036;-68
2021/07/23 06:41:15;;;;;;;15.25;10.70;;;;;;;21.74;65.55;100178.25;5100934;28;20027;-67
2021/07/23 06:44:01;;;;;;;15.48;10.40;;;;;;;21.85;65.59;100179.25;5100964;28;20023;-67
2021/07/23 06:46:46;;;;;;;16.17;10.60;;;;;;;21.95;65.62;100174.94;5101542;27;20491;-67
2021/07/23 06:49:32;;;;;;;13.35;9.52;;;;;;;22.05;64.93;100181.97;5104861;27;20042;-68
2021/07/23 06:52:19;;;;;;;12.68;10.15;;;;;;;22.17;64.92;100180.94;5096924;28;20048;-67
2021/07/23 06:55:05;;;;;;;17.73;11.13;;;;;;;22.23;65.48;100176.63;5093790;28;20548;-67
2021/07/23 06:57:51;;;;;;;15.02;10.18;;;;;;;22.33;65.04;100167.47;5090972;28;20028;-66
2021/07/23 07:00:37;;;;;;;13.38;10.70;;;;;;;22.41;64.78;100155.06;5092330;28;20035;-67
2021/07/23 07:03:23;;;;;;;14.77;10.10;;;;;;;22.48;64.47;100140.19;5080104;28;20389;-66
2021/07/23 07:06:09;;;;;;;15.68;10.80;;;;;;;22.59;64.50;100146.00;5085340;28;20027;-66
2021/07/23 07:08:54;;;;;;;16.63;10.82;;;;;;;22.75;64.85;100149.44;5092855;28;20527;-67
2021/07/23 07:11:40;;;;;;;16.90;10.13;;;;;;;22.97;63.92;100134.38;5097123;28;20066;-66
2021/07/23 07:14:26;;;;;;;13.85;9.77;;;;;;;23.19;63.09;100128.94;5076191;28;20032;-67
2021/07/23 07:17:13;;;;;;;16.17;10.55;;;;;;;23.47;63.99;100127.59;5108422;28;20035;-66
2021/07/23 07:19:58;;;;;;;14.25;9.90;;;;;;;23.68;63.09;100130.59;5080391;28;20104;-67
2021/07/23 07:22:44;;;;;;;16.73;10.02;;;;;;;23.79;60.89;100128.69;5083203;28;20495;-66
2021/07/23 07:25:31;;;;;;;12.55;9.40;;;;;;;24.02;60.55;100116.31;5109745;27;20035;-67
2021/07/23 07:28:17;;;;;;;14.02;9.10;;;;;;;24.14;60.53;100115.97;5089031;28;20039;-68
2021/07/23 07:31:02;;;;;;;14.80;9.95;;;;;;;24.20;60.46;100110.72;5070064;28;20581;-69
2021/07/23 07:33:48;;;;;;;13.63;10.00;;;;;;;24.42;59.98;100105.97;5082973;28;20621;-67
2021/07/23 07:36:34;;;;;;;14.35;9.73;;;;;;;24.63;59.76;100110.97;5077002;28;20028;-68
2021/07/23 07:39:20;;;;;;;12.77;9.32;;;;;;;24.78;59.63;100106.16;5077746;28;20483;-66
2021/07/23 07:42:06;;;;;;;15.43;10.15;;;;;;;24.89;57.46;100104.16;5095980;28;20028;-67
2021/07/23 07:44:52;;;;;;;12.43;9.18;;;;;;;24.98;57.65;100101.75;5096136;28;20119;-67
2021/07/23 07:47:38;;;;;;;13.98;9.40;;;;;;;25.16;58.31;100096.94;5082669;27;20032;-69
2021/07/23 07:50:24;;;;;;;12.93;9.57;;;;;;;25.23;58.75;100089.63;5067346;28;20048;-68
2021/07/23 07:53:12;;;;;;;15.13;9.52;;;;;;;25.39;57.32;100085.19;5082976;28;20047;-67
2021/07/23 07:55:58;;;;;;;14.25;9.48;;;;;;;25.50;57.61;100073.00;5085004;28;20498;-66
2021/07/23 07:58:43;;;;;;;14.25;9.20;;;;;;;25.64;56.96;100065.28;5085697;28;20034;-67
2021/07/23 08:01:29;;;;;;;14.55;9.68;;;;;;;25.82;56.88;100068.09;5093897;28;20032;-67
2021/07/23 08:04:15;;;;;;;12.02;9.05;;;;;;;25.87;56.39;100066.91;5093414;28;20028;-66
2021/07/23 08:07:01;;;;;;;13.43;8.98;;;;;;;26.06;55.49;100069.28;5086506;28;20044;-67
2021/07/23 08:09:57;;;;;;;12.88;9.30;;;;;;;26.25;54.75;100068.03;5091092;28;20031;-67
2021/07/23 08:12:43;;;;;;;14.98;8.57;;;;;;;26.31;54.34;100074.09;5086628;28;20032;-66
2021/07/23 08:15:28;;;;;;;11.00;8.15;;;;;;;26.52;53.87;100062.66;5097633;28;20434;-67
2021/07/23 08:18:14;;;;;;;12.95;8.88;;;;;;;26.60;54.00;100054.06;5093172;28;20504;-66
2021/07/23 08:21:02;;;;;;;11.10;8.15;;;;;;;26.84;54.34;100049.47;5073609;28;20031;-67
2021/07/23 08:23:48;;;;;;;12.88;9.05;;;;;;;26.78;53.51;100051.13;5069934;28;20114;-67
2021/07/23 08:26:34;;;;;;;12.07;9.02;;;;;;;26.84;53.76;100038.06;5099849;28;20031;-67
2021/07/23 08:29:19;;;;;;;15.13;9.05;;;;;;;27.06;53.72;100018.78;5086924;28;20081;-66
2021/07/23 08:32:07;;;;;;;13.32;8.65;;;;;;;27.27;53.81;100007.22;5098090;28;20403;-68
2021/07/23 08:34:56;;;;;;;14.88;9.02;;;;;;;27.42;53.69;100005.09;5075604;28;20090;-67
2021/07/23 08:37:42;;;;;;;14.32;9.90;;;;;;;27.44;52.47;100005.44;5095003;28;20043;-67
2021/07/23 08:40:28;;;;;;;13.70;9.13;;;;;;;27.59;51.23;99978.41;5083694;28;20039;-67
2021/07/23 08:43:14;;;;;;;10.65;8.68;;;;;;;27.67;51.08;99979.16;5085436;28;20039;-66
2021/07/23 08:46:00;;;;;;;15.20;10.00;;;;;;;27.48;51.61;99974.06;5077887;28;20412;-66
2021/07/23 08:48:46;;;;;;;16.27;8.80;;;;;;;27.55;51.37;99973.97;5099405;28;20499;-66
2021/07/23 08:51:32;;;;;;;13.10;9.63;;;;;;;27.59;51.30;99966.22;5069557;28;20047;-66
2021/07/23 08:54:18;;;;;;;12.93;8.95;;;;;;;27.59;51.58;99949.91;5044847;28;20042;-67
2021/07/23 08:57:07;;;;;;;12.65;9.45;;;;;;;27.49;52.01;99952.88;5053964;28;20093;-67
2021/07/23 08:59:53;;;;;;;13.10;9.07;;;;;;;27.36;52.24;99944.84;5061772;28;20032;-67
2021/07/23 09:03:02;;;;;;;13.35;9.85;;;;;;;27.02;52.07;99941.88;5060793;28;20028;-67
2021/07/23 09:05:47;;;;;;;15.20;9.20;;;;;;;26.93;52.96;99950.91;5064756;28;20039;-66
2021/07/23 09:08:33;;;;;;;13.85;9.20;;;;;;;26.85;52.57;99948.53;5060378;28;20036;-67
2021/07/23 09:11:27;;;;;;;15.40;9.13;;;;;;;26.95;52.96;99930.53;5063457;28;20043;-67
2021/07/23 09:14:13;;;;;;;15.45;9.38;;;;;;;26.86;53.10;99925.31;5050223;28;20389;-66
2021/07/23 09:16:59;;;;;;;11.77;9.05;;;;;;;27.03;52.99;99917.06;5057331;28;20532;-67
2021/07/23 09:20:01;;;;;;;18.48;9.68;;;;;;;26.94;52.50;99929.75;5062658;28;20035;-67
2021/07/23 09:22:49;;;;;;;12.60;8.70;;;;;;;26.98;52.33;99921.16;5054968;28;20472;-67
2021/07/23 09:25:42;;;;;;;13.95;9.13;;;;;;;26.93;52.19;99928.09;5077797;28;20033;-66
2021/07/23 09:28:32;;;;;;;14.48;9.55;;;;;;;26.89;51.87;99921.63;5063349;28;20128;-67
2021/07/23 09:31:24;;;;;;;11.25;9.05;;;;;;;26.74;51.87;99920.13;5071720;28;20036;-66
2021/07/23 09:34:10;;;;;;;15.15;8.95;;;;;;;26.87;52.18;99918.38;5058435;28;20036;-66
2021/07/23 09:37:09;;;;;;;13.30;8.60;;;;;;;26.93;52.87;99908.16;5061655;28;20040;-66
2021/07/23 09:39:56;;;;;;;12.18;9.77;;;;;;;26.92;52.41;99903.69;5074863;28;20116;-66
2021/07/23 09:42:42;;;;;;;10.95;8.82;;;;;;;27.11;52.96;99910.06;5062874;28;20032;-66
2021/07/23 09:45:32;;;;;;;13.07;8.88;;;;;;;27.07;52.23;99910.06;5046807;28;20050;-66
2021/07/23 09:48:18;;;;;;;11.43;8.60;;;;;;;27.16;52.22;99910.44;5050119;28;20058;-66
2021/07/23 09:51:03;;;;;;;14.32;9.63;;;;;;;27.30;52.67;99912.34;5079244;28;20036;-67
2021/07/23 09:53:49;;;;;;;19.23;9.48;;;;;;;27.36;52.54;99910.63;5091134;27;20110;-67
2021/07/23 09:56:35;;;;;;;14.00;9.02;;;;;;;27.43;53.30;99900.38;5081829;28;20479;-66
2021/07/23 10:00:01;;;;;;;14.57;9.18;;;;;;;27.57;52.35;99891.66;5107853;28;20031;-66
2021/07/23 10:02:47;;;;;;;11.43;8.80;;;;;;;27.68;51.38;99888.69;5111016;28;20118;-66
2021/07/23 10:05:36;;;;;;;14.23;9.32;;;;;;;27.72;50.53;99878.03;5083849;28;20059;-66
2021/07/23 10:08:23;;;;;;;11.90;8.57;;;;;;;27.75;50.33;99872.31;5093377;28;20036;-66
2021/07/23 10:11:09;;;;;;;11.38;8.98;;;;;;;27.74;50.93;99873.50;5086018;28;20092;-66
2021/07/23 10:13:56;;;;;;;15.30;9.02;;;;;;;27.64;50.33;99871.63;5108870;28;20039;-66
2021/07/23 10:16:42;;;;;;;11.98;8.77;;;;;;;27.59;50.95;99867.19;5091401;28;20446;-66
2021/07/23 10:19:28;;;;;;;13.90;8.93;;;;;;;27.57;50.91;99846.84;5078194;28;20039;-66
2021/07/23 10:22:14;;;;;;;14.07;8.82;;;;;;;27.54;50.70;99838.34;5084063;28;20043;-67
2021/07/23 10:24:59;;;;;;;16.52;9.05;;;;;;;27.48;51.38;99837.19;5090044;28;20031;-66
2021/07/23 10:27:45;;;;;;;12.43;9.00;;;;;;;27.46;51.02;99851.06;5116499;28;20091;-66
2021/07/23 10:30:35;;;;;;;11.77;8.30;;;;;;;27.40;49.96;99834.41;5117006;28;20034;-66
2021/07/23 10:33:59;;;;;;;14.68;8.90;;;;;;;27.25;50.02;99846.44;5115615;28;20096;-67
2021/07/23 10:36:45;;;;;;;12.38;8.75;;;;;;;27.25;50.39;99852.13;5114144;28;20039;-66
2021/07/23 10:39:31;;;;;;;11.05;8.60;;;;;;;27.24;50.06;99851.28;5103187;27;20035;-66
2021/07/23 10:42:25;;;;;;;12.20;8.35;;;;;;;27.24;50.76;99842.75;5118303;27;20035;-66
2021/07/23 10:45:15;;;;;;;11.45;8.77;;;;;;;27.24;50.66;99819.94;5102829;28;20507;-66
2021/07/23 10:48:00;;;;;;;14.15;8.52;;;;;;;27.34;51.03;99813.31;5102526;28;20055;-67
2021/07/23 10:50:46;;;;;;;12.68;9.02;;;;;;;27.50;50.21;99806.22;5113196;28;20043;-67
2021/07/23 10:53:32;;;;;;;13.25;8.43;;;;;;;27.63;50.05;99810.09;5089385;28;20043;-67
2021/07/23 10:56:19;;;;;;;14.10;8.98;;;;;;;27.73;50.30;99806.31;5091657;27;20059;-67
2021/07/23 10:59:04;;;;;;;11.93;8.45;;;;;;;27.85;50.57;99788.63;5115484;27;20051;-66
2021/07/23 11:01:50;;;;;;;13.30;9.13;;;;;;;27.87;49.01;99793.13;5082209;27;20114;-66
2021/07/23 11:04:39;;;;;;;10.45;7.82;;;;;;;28.05;49.40;99776.50;5103615;28;20067;-66
2021/07/23 11:07:25;;;;;;;11.90;8.27;;;;;;;28.14;50.42;99776.78;5106941;27;20042;-67
2021/07/23 11:10:13;;;;;;;13.23;8.27;;;;;;;28.29;49.93;99774.50;5117968;27;20126;-67
2021/07/23 11:12:58;;;;;;;12.23;8.77;;;;;;;28.49;49.97;99797.44;5100812;27;20103;-67
2021/07/23 11:15:47;;;;;;;10.68;8.65;;;;;;;28.72;50.34;99806.03;5111571;27;20122;-66
2021/07/23 11:18:33;;;;;;;13.73;8.40;;;;;;;28.86;49.72;99799.25;5105952;27;20797;-67
2021/07/23 11:21:19;;;;;;;11.80;8.45;;;;;;;28.87;49.78;99795.16;5113816;27;20031;-67
2021/07/23 11:24:12;;;;;;;13.48;8.20;;;;;;;28.88;48.34;99788.16;5088486;27;20032;-67
2021/07/23 11:26:57;;;;;;;;;;;;;;;28.93;48.07;99792.59;5128321;27;20059;-67
2021/07/23 11:29:43;;;;;;;12.13;8.07;;;;;;;28.89;47.21;99788.97;5116492;27;20303;-67
2021/07/23 11:32:29;;;;;;;13.43;8.60;;;;;;;28.79;48.15;99787.16;5105172;27;20062;-67
2021/07/23 11:35:15;;;;;;;13.57;8.23;;;;;;;28.76;47.88;99774.53;5098142;27;20035;-67
2021/07/23 11:38:09;;;;;;;13.02;8.70;;;;;;;28.85;47.95;99757.63;5120458;27;20035;-67
2021/07/23 11:41:05;;;;;;;12.05;9.32;;;;;;;28.87;48.71;99755.13;5100813;27;20039;-67
2021/07/23 11:44:10;;;;;;;13.10;8.35;;;;;;;28.95;48.19;99752.97;5101826;27;20035;-67
2021/07/23 11:46:56;;;;;;;13.82;8.70;;;;;;;28.96;48.06;99760.28;5113395;27;20039;-67
2021/07/23 11:49:42;;;;;;;13.50;8.52;;;;;;;29.04;47.86;99758.91;5115329;27;20040;-67
2021/07/23 11:52:27;;;;;;;13.23;8.40;;;;;;;29.19;47.52;99745.13;5117871;27;20095;-66
2021/07/23 11:55:14;;;;;;;10.50;8.48;;;;;;;29.29;47.36;99737.59;5098834;27;20092;-66
2021/07/23 11:58:00;;;;;;;10.30;8.95;;;;;;;29.38;46.98;99729.22;5120570;27;20032;-67
2021/07/23 12:00:46;;;;;;;15.07;9.05;;;;;;;29.50;47.32;99722.81;5088100;27;20050;-67
2021/07/23 12:03:32;;;;;;;13.93;9.02;;;;;;;29.48;47.16;99719.59;5084302;27;20051;-67
2021/07/23 12:06:24;;;;;;;14.02;8.70;;;;;;;29.50;46.59;99719.16;5106324;27;20046;-67
2021/07/23 12:09:10;;;;;;;12.02;8.77;;;;;;;29.59;46.45;99717.31;5103207;27;20110;-67
2021/07/23 12:11:56;;;;;;;10.10;8.20;;;;;;;29.57;46.32;99707.56;5102662;27;20054;-66
2021/07/23 12:14:42;;;;;;;10.32;7.72;;;;;;;29.65;46.44;99708.22;5098108;28;20098;-66
2021/07/23 12:17:27;;;;;;;11.63;8.57;;;;;;;29.59;46.74;99714.44;5108903;27;20031;-66
2021/07/23 12:20:14;;;;;;;11.48;8.18;;;;;;;29.71;47.18;99698.66;5104117;27;20032;-67
2021/07/23 12:23:01;;;;;;;14.48;9.20;;;;;;;29.74;46.23;99706.34;5105559;27;20522;-67
2021/07/23 12:25:47;;;;;;;14.77;9.02;;;;;;;29.74;45.74;99706.34;5105688;27;20084;-67
2021/07/23 12:28:32;;;;;;;11.40;8.35;;;;;;;29.76;46.72;99698.13;5120752;27;20037;-67
2021/07/23 12:31:18;;;;;;;13.32;9.10;;;;;;;29.86;45.79;99710.56;5117719;27;20039;-67
2021/07/23 12:34:08;;;;;;;13.48;9.15;;;;;;;29.86;45.92;99701.97;5096328;28;20032;-67
2021/07/23 12:36:55;;;;;;;14.20;8.90;;;;;;;29.90;46.46;99693.31;5098617;27;20448;-67
2021/07/23 12:39:57;;;;;;;13.32;8.90;;;;;;;29.91;46.64;99680.63;5120243;27;20519;-66
2021/07/23 12:42:43;;;;;;;12.73;9.35;;;;;;;29.85;46.18;99663.19;5103129;27;20032;-67
2021/07/23 12:45:32;;;;;;;12.85;9.10;;;;;;;29.98;47.01;99669.00;5097760;27;20099;-68
2021/07/23 12:48:20;;;;;;;14.15;9.38;;;;;;;29.92;46.80;99671.59;5133721;27;20043;-67